createdAt,value
2017-04-29T00:00:19.221Z,16.30
2017-04-29T00:02:50.142Z,16.20
2017-04-29T00:05:20.804Z,16.30
2017-04-29T00:07:51.792Z,16.10
2017-04-29T00:10:22.813Z,16.30
2017-04-29T00:12:53.810Z,16.40
2017-04-29T00:15:24.507Z,16.30
2017-04-29T00:17:55.445Z,16.20
2017-04-29T00:20:26.296Z,16.20
2017-04-29T00:22:57.241Z,16.10
2017-04-29T00:25:27.894Z,16.10
2017-04-29T00:27:58.884Z,16.20
2017-04-29T00:30:29.638Z,16.20
2017-04-29T00:33:00.612Z,16.30
2017-04-29T00:35:32.395Z,16.30
2017-04-29T00:38:03.780Z,16.30
2017-04-29T00:40:34.858Z,16.40
2017-04-29T00:43:05.911Z,16.50
2017-04-29T00:45:36.727Z,16.80
2017-04-29T00:48:08.449Z,16.80
2017-04-29T00:50:39.396Z,16.90
2017-04-29T00:53:10.322Z,17.10
2017-04-29T00:55:41.245Z,16.90
2017-04-29T00:58:12.131Z,16.90
2017-04-29T01:00:43.227Z,16.90
2017-04-29T01:03:15.402Z,17.00
2017-04-29T01:05:46.585Z,17.10
2017-04-29T01:08:17.306Z,17.10
2017-04-29T01:10:47.996Z,16.80
2017-04-29T01:13:18.968Z,16.60
2017-04-29T01:15:50.795Z,16.50
2017-04-29T01:18:21.800Z,16.60
2017-04-29T01:20:52.676Z,16.60
2017-04-29T01:23:23.287Z,16.50
2017-04-29T01:25:53.799Z,16.30
2017-04-29T01:28:25.404Z,16.00
2017-04-29T01:30:56.181Z,15.90
2017-04-29T01:33:27.260Z,15.80
2017-04-29T01:35:57.724Z,15.70
2017-04-29T01:38:28.546Z,15.60
2017-04-29T01:40:59.556Z,15.50
2017-04-29T01:43:30.400Z,15.40
2017-04-29T01:46:00.405Z,15.30
2017-04-29T01:48:32.207Z,15.20
2017-04-29T01:51:02.992Z,15.00
2017-04-29T01:53:33.102Z,15.10
2017-04-29T01:56:04.058Z,15.10
2017-04-29T01:58:35.119Z,15.10
2017-04-29T02:01:05.806Z,15.00
2017-04-29T02:03:36.681Z,15.00
2017-04-29T02:06:07.458Z,14.80
2017-04-29T02:08:38.360Z,14.70
2017-04-29T02:11:09.412Z,14.70
2017-04-29T02:13:40.138Z,14.80
2017-04-29T02:16:10.870Z,14.90
2017-04-29T02:18:41.783Z,15.00
2017-04-29T02:21:12.843Z,15.00
2017-04-29T02:23:43.752Z,15.00
2017-04-29T02:26:14.702Z,14.90
2017-04-29T02:28:45.648Z,14.80
2017-04-29T02:31:16.789Z,14.70
2017-04-29T02:33:48.165Z,14.70
2017-04-29T02:36:18.890Z,14.60
2017-04-29T02:38:49.820Z,14.60
2017-04-29T02:41:20.753Z,14.70
2017-04-29T02:43:51.454Z,14.60
2017-04-29T02:46:22.261Z,14.50
2017-04-29T02:48:53.902Z,14.30
2017-04-29T02:51:24.389Z,14.30
2017-04-29T02:53:55.258Z,14.20
2017-04-29T02:56:26.064Z,14.30
2017-04-29T02:58:56.833Z,14.20
2017-04-29T03:01:27.716Z,14.20
2017-04-29T03:03:58.000Z,14.10
2017-04-29T03:06:28.849Z,14.00
2017-04-29T03:08:59.551Z,13.90
2017-04-29T03:11:30.291Z,13.80
2017-04-29T03:14:01.087Z,13.70
2017-04-29T03:16:31.930Z,13.60
2017-04-29T03:19:02.474Z,13.60
2017-04-29T03:21:33.254Z,13.50
2017-04-29T03:24:04.063Z,13.40
2017-04-29T03:26:35.114Z,13.30
2017-04-29T03:29:05.929Z,13.30
2017-04-29T03:31:36.819Z,13.10
2017-04-29T03:34:08.562Z,13.10
2017-04-29T03:36:39.421Z,13.10
2017-04-29T03:39:10.356Z,13.00
2017-04-29T03:41:41.175Z,13.00
2017-04-29T03:44:12.273Z,12.90
2017-04-29T03:46:43.788Z,12.80
2017-04-29T03:49:15.967Z,12.60
2017-04-29T03:51:46.799Z,12.50
2017-04-29T03:54:17.803Z,12.30
2017-04-29T03:56:48.719Z,12.10
2017-04-29T03:59:19.777Z,11.90
2017-04-29T04:01:50.566Z,11.90
2017-04-29T04:04:21.884Z,11.70
2017-04-29T04:06:52.679Z,11.70
2017-04-29T04:09:24.086Z,11.60
2017-04-29T04:11:54.633Z,11.50
2017-04-29T04:14:25.438Z,11.40
2017-04-29T04:16:56.163Z,11.30
2017-04-29T04:19:27.095Z,11.40
2017-04-29T04:21:57.663Z,11.30
2017-04-29T04:24:28.384Z,11.30
2017-04-29T04:26:59.192Z,11.30
2017-04-29T04:29:30.015Z,11.20
2017-04-29T04:32:00.655Z,11.10
2017-04-29T04:34:31.501Z,11.10
2017-04-29T04:37:02.281Z,11.00
2017-04-29T04:39:33.116Z,10.90
2017-04-29T04:42:03.770Z,10.90
2017-04-29T04:44:34.876Z,10.90
2017-04-29T04:47:05.385Z,10.90
2017-04-29T04:49:37.039Z,10.80
2017-04-29T04:52:07.678Z,10.80
2017-04-29T04:54:38.701Z,10.80
2017-04-29T04:57:09.515Z,10.80
2017-04-29T04:59:40.248Z,10.80
2017-04-29T05:02:10.828Z,10.80
2017-04-29T05:04:41.694Z,10.70
2017-04-29T05:07:12.055Z,10.60
2017-04-29T05:09:42.987Z,10.60
2017-04-29T05:12:14.089Z,10.50
2017-04-29T05:14:44.811Z,10.50
2017-04-29T05:17:15.784Z,10.50
2017-04-29T05:19:46.365Z,10.50
2017-04-29T05:22:17.171Z,10.40
2017-04-29T05:24:48.183Z,10.40
2017-04-29T05:27:19.119Z,10.30
2017-04-29T05:29:52.227Z,10.30
2017-04-29T05:32:22.902Z,10.40
2017-04-29T05:34:53.981Z,10.30
2017-04-29T05:37:24.772Z,10.30
2017-04-29T05:39:55.812Z,10.30
2017-04-29T05:42:26.735Z,10.20
2017-04-29T05:44:57.750Z,10.10
2017-04-29T05:47:28.662Z,10.00
2017-04-29T05:50:01.100Z,9.90
2017-04-29T05:52:31.979Z,9.90
2017-04-29T05:55:02.849Z,9.80
2017-04-29T05:57:33.418Z,9.80
2017-04-29T06:00:03.658Z,9.80
2017-04-29T06:02:34.659Z,9.70
2017-04-29T06:05:05.402Z,9.80
2017-04-29T06:07:36.313Z,9.80
2017-04-29T06:10:07.177Z,9.70
2017-04-29T06:12:38.080Z,9.80
2017-04-29T06:15:09.879Z,9.70
2017-04-29T06:17:40.775Z,9.70
2017-04-29T06:20:11.317Z,9.60
2017-04-29T06:22:42.452Z,9.70
2017-04-29T06:25:13.555Z,9.60
2017-04-29T06:27:44.422Z,9.60
2017-04-29T06:30:15.194Z,9.50
2017-04-29T06:32:45.851Z,9.50
2017-04-29T06:35:17.095Z,9.50
2017-04-29T06:37:47.871Z,9.50
2017-04-29T06:40:18.795Z,9.40
2017-04-29T06:42:50.316Z,9.40
2017-04-29T06:45:21.076Z,9.40
2017-04-29T06:47:52.040Z,9.40
2017-04-29T06:50:24.273Z,9.30
2017-04-29T06:52:54.878Z,9.30
2017-04-29T06:55:25.799Z,9.20
2017-04-29T06:57:56.667Z,9.20
2017-04-29T07:00:27.697Z,9.20
2017-04-29T07:02:58.769Z,9.20
2017-04-29T07:05:29.865Z,9.10
2017-04-29T07:08:00.690Z,9.00
2017-04-29T07:10:31.650Z,9.00
2017-04-29T07:13:02.426Z,9.10
2017-04-29T07:15:33.230Z,9.00
2017-04-29T07:18:04.097Z,9.00
2017-04-29T07:20:34.824Z,9.00
2017-04-29T07:23:05.714Z,8.90
2017-04-29T07:25:36.656Z,8.80
2017-04-29T07:28:07.431Z,8.80
2017-04-29T07:30:38.246Z,8.80
2017-04-29T07:33:09.167Z,8.70
2017-04-29T07:35:39.967Z,8.70
2017-04-29T07:38:10.683Z,8.70
2017-04-29T07:40:41.662Z,8.60
2017-04-29T07:43:13.268Z,8.60
2017-04-29T07:45:43.962Z,8.70
2017-04-29T07:48:14.839Z,8.70
2017-04-29T07:50:46.583Z,8.70
2017-04-29T07:53:17.306Z,8.70
2017-04-29T07:55:47.972Z,8.70
2017-04-29T07:58:18.661Z,8.60
2017-04-29T08:00:49.487Z,8.60
2017-04-29T08:03:20.242Z,8.60
2017-04-29T08:05:50.980Z,8.60
2017-04-29T08:08:21.525Z,8.50
2017-04-29T08:10:52.497Z,8.50
2017-04-29T08:13:23.180Z,8.50
2017-04-29T08:15:53.966Z,8.40
2017-04-29T08:18:24.513Z,8.40
2017-04-29T08:20:56.038Z,8.40
2017-04-29T08:23:26.549Z,8.40
2017-04-29T08:25:57.373Z,8.40
2017-04-29T08:28:28.254Z,8.30
2017-04-29T08:30:58.847Z,8.40
2017-04-29T08:33:29.934Z,8.30
2017-04-29T08:36:00.950Z,8.10
2017-04-29T08:38:31.619Z,8.10
2017-04-29T08:41:02.476Z,7.90
2017-04-29T08:43:33.433Z,7.80
2017-04-29T08:46:04.243Z,7.80
2017-04-29T08:48:35.047Z,7.50
2017-04-29T08:51:07.738Z,7.60
2017-04-29T08:53:38.581Z,7.50
2017-04-29T08:56:09.559Z,7.30
2017-04-29T08:58:40.298Z,7.30
2017-04-29T09:01:11.083Z,7.20
2017-04-29T09:03:42.092Z,7.20
2017-04-29T09:06:12.648Z,7.10
2017-04-29T09:08:43.184Z,7.10
2017-04-29T09:11:14.183Z,7.00
2017-04-29T09:13:45.018Z,7.00
2017-04-29T09:16:15.835Z,6.90
2017-04-29T09:18:46.660Z,6.90
2017-04-29T09:21:17.761Z,6.90
2017-04-29T09:23:48.572Z,6.80
2017-04-29T09:26:19.507Z,6.80
2017-04-29T09:28:50.225Z,6.90
2017-04-29T09:31:21.627Z,6.80
2017-04-29T09:33:52.485Z,6.80
2017-04-29T09:36:23.551Z,6.80
2017-04-29T09:38:54.258Z,6.80
2017-04-29T09:41:25.281Z,6.70
2017-04-29T09:43:55.876Z,6.80
2017-04-29T09:46:27.754Z,6.80
2017-04-29T09:48:58.262Z,6.70
2017-04-29T09:51:30.423Z,6.70
2017-04-29T09:54:04.275Z,6.60
2017-04-29T09:56:35.868Z,6.60
2017-04-29T09:59:06.643Z,6.50
2017-04-29T10:01:37.284Z,6.60
2017-04-29T10:04:07.962Z,6.50
2017-04-29T10:06:38.841Z,6.40
2017-04-29T10:09:09.559Z,6.20
2017-04-29T10:11:40.363Z,6.40
2017-04-29T10:14:11.272Z,6.40
2017-04-29T10:16:42.804Z,6.40
2017-04-29T10:19:13.771Z,6.40
2017-04-29T10:21:44.691Z,6.40
2017-04-29T10:24:15.280Z,6.30
2017-04-29T10:26:46.042Z,6.20
2017-04-29T10:29:16.655Z,6.20
2017-04-29T10:31:47.419Z,6.30
2017-04-29T10:34:18.243Z,6.30
2017-04-29T10:36:49.142Z,6.30
2017-04-29T10:39:20.798Z,6.10
2017-04-29T10:41:51.755Z,6.10
2017-04-29T10:44:22.713Z,6.10
2017-04-29T10:46:53.697Z,6.10
2017-04-29T10:49:25.301Z,6.20
2017-04-29T10:51:57.151Z,6.20
2017-04-29T10:54:28.025Z,6.20
2017-04-29T10:56:58.971Z,6.10
2017-04-29T10:59:29.578Z,6.00
2017-04-29T11:02:00.043Z,5.90
2017-04-29T11:04:30.482Z,5.90
2017-04-29T11:07:01.436Z,5.80
2017-04-29T11:09:32.416Z,5.60
2017-04-29T11:12:03.271Z,5.50
2017-04-29T11:14:33.865Z,5.40
2017-04-29T11:17:04.554Z,5.40
2017-04-29T11:19:35.226Z,5.40
2017-04-29T11:22:06.139Z,5.40
2017-04-29T11:24:36.472Z,5.30
2017-04-29T11:27:07.437Z,5.30
2017-04-29T11:29:37.950Z,5.20
2017-04-29T11:32:08.551Z,5.20
2017-04-29T11:34:39.448Z,5.30
2017-04-29T11:37:10.011Z,5.10
2017-04-29T11:39:40.877Z,5.30
2017-04-29T11:42:11.886Z,5.20
2017-04-29T11:44:42.083Z,5.30
2017-04-29T11:47:13.326Z,5.20
2017-04-29T11:49:44.117Z,5.20
2017-04-29T11:52:15.741Z,5.10
2017-04-29T11:54:46.649Z,5.20
2017-04-29T11:57:17.356Z,5.20
2017-04-29T11:59:48.298Z,5.20
2017-04-29T12:02:19.116Z,5.20
2017-04-29T12:04:49.798Z,5.20
2017-04-29T12:07:23.536Z,5.00
2017-04-29T12:09:55.229Z,4.90
2017-04-29T12:12:26.047Z,4.80
2017-04-29T12:14:56.747Z,4.70
2017-04-29T12:17:27.581Z,4.70
2017-04-29T12:19:57.968Z,4.50
2017-04-29T12:22:28.878Z,4.60
2017-04-29T12:25:00.151Z,4.60
2017-04-29T12:27:31.020Z,4.60
2017-04-29T12:30:01.925Z,4.60
2017-04-29T12:32:32.792Z,4.50
2017-04-29T12:35:03.584Z,4.60
2017-04-29T12:37:34.524Z,4.60
2017-04-29T12:40:05.254Z,4.50
2017-04-29T12:42:36.127Z,4.60
2017-04-29T12:45:06.896Z,4.50
2017-04-29T12:47:37.889Z,4.50
2017-04-29T12:50:08.510Z,4.40
2017-04-29T12:52:40.355Z,4.40
2017-04-29T12:55:11.346Z,4.40
2017-04-29T12:57:42.228Z,4.40
2017-04-29T13:00:13.302Z,4.40
2017-04-29T13:02:44.054Z,4.50
2017-04-29T13:05:14.647Z,4.40
2017-04-29T13:07:45.352Z,4.30
2017-04-29T13:10:16.455Z,4.40
2017-04-29T13:12:47.443Z,4.40
2017-04-29T13:15:19.148Z,4.50
2017-04-29T13:17:50.088Z,4.60
2017-04-29T13:20:20.909Z,4.70
2017-04-29T13:22:51.739Z,4.70
2017-04-29T13:25:22.377Z,4.80
2017-04-29T13:27:53.361Z,4.80
2017-04-29T13:30:24.233Z,4.80
2017-04-29T13:32:55.048Z,4.80
2017-04-29T13:35:26.576Z,4.90
2017-04-29T13:37:57.398Z,5.00
2017-04-29T13:40:27.903Z,5.20
2017-04-29T13:42:59.339Z,5.30
2017-04-29T13:45:30.767Z,5.40
2017-04-29T13:48:01.587Z,5.50
2017-04-29T13:50:32.309Z,5.60
2017-04-29T13:53:04.053Z,5.70
2017-04-29T13:55:34.778Z,6.00
2017-04-29T13:58:05.692Z,6.20
2017-04-29T14:00:36.230Z,6.30
2017-04-29T14:03:07.174Z,6.40
2017-04-29T14:05:38.066Z,6.80
2017-04-29T14:08:09.022Z,7.30
2017-04-29T14:10:39.963Z,8.00
2017-04-29T14:13:11.678Z,8.70
2017-04-29T14:15:42.242Z,9.50
2017-04-29T14:18:12.911Z,10.10
2017-04-29T14:20:43.525Z,10.70
2017-04-29T14:23:14.610Z,11.00
2017-04-29T14:25:45.458Z,11.20
2017-04-29T14:28:16.612Z,11.40
2017-04-29T14:30:47.326Z,11.60
2017-04-29T14:33:18.201Z,11.50
2017-04-29T14:35:49.015Z,11.60
2017-04-29T14:38:19.639Z,11.60
2017-04-29T14:40:50.414Z,11.30
2017-04-29T14:43:21.363Z,11.10
2017-04-29T14:45:52.321Z,11.10
2017-04-29T14:48:23.253Z,11.30
2017-04-29T14:50:54.174Z,11.40
2017-04-29T14:53:25.638Z,11.60
2017-04-29T14:55:56.301Z,12.80
2017-04-29T14:58:27.250Z,14.00
2017-04-29T15:00:58.001Z,14.80
2017-04-29T15:03:28.892Z,14.70
2017-04-29T15:05:59.677Z,14.70
2017-04-29T15:08:30.334Z,13.30
2017-04-29T15:11:01.089Z,14.10
2017-04-29T15:13:31.921Z,16.00
2017-04-29T15:16:03.578Z,18.20
2017-04-29T15:18:34.562Z,20.60
2017-04-29T15:21:05.542Z,22.90
2017-04-29T15:23:36.432Z,24.50
2017-04-29T15:26:07.278Z,24.90
2017-04-29T15:28:38.100Z,24.10
2017-04-29T15:31:09.090Z,23.80
2017-04-29T15:33:39.810Z,24.90
2017-04-29T15:36:11.486Z,25.60
2017-04-29T15:38:42.583Z,27.10
2017-04-29T15:41:13.306Z,27.60
2017-04-29T15:43:43.898Z,27.30
2017-04-29T15:46:14.560Z,28.30
2017-04-29T15:48:45.389Z,29.10
2017-04-29T15:51:16.241Z,25.40
2017-04-29T15:53:47.561Z,23.00
2017-04-29T15:56:18.280Z,25.30
2017-04-29T15:58:48.421Z,25.90
2017-04-29T16:01:18.487Z,27.40
2017-04-29T16:03:48.529Z,28.40
2017-04-29T16:06:18.583Z,28.20
2017-04-29T16:08:48.669Z,26.80
2017-04-29T16:11:19.475Z,27.30
2017-04-29T16:13:50.302Z,26.40
2017-04-29T16:16:20.286Z,25.90
2017-04-29T16:18:50.624Z,24.50
2017-04-29T16:21:20.733Z,25.30
2017-04-29T16:23:50.848Z,25.60
2017-04-29T16:26:21.518Z,25.70
2017-04-29T16:28:52.220Z,26.00
2017-04-29T16:31:23.008Z,26.20
2017-04-29T16:33:53.571Z,24.90
2017-04-29T16:36:24.327Z,22.60
2017-04-29T16:38:55.099Z,21.70
2017-04-29T16:41:25.959Z,21.90
2017-04-29T16:43:57.642Z,21.30
2017-04-29T16:46:28.286Z,21.50
2017-04-29T16:48:58.473Z,21.10
2017-04-29T16:51:29.364Z,21.60
2017-04-29T16:54:01.113Z,21.80
2017-04-29T16:56:31.650Z,21.80
2017-04-29T16:59:02.207Z,21.50
2017-04-29T17:01:32.920Z,21.10
2017-04-29T17:04:03.785Z,21.80
2017-04-29T17:06:34.372Z,23.30
2017-04-29T17:09:05.208Z,24.00
2017-04-29T17:11:36.257Z,24.90
2017-04-29T17:14:06.997Z,25.50
2017-04-29T17:16:37.923Z,23.90
2017-04-29T17:19:08.834Z,23.50
2017-04-29T17:21:39.505Z,24.60
2017-04-29T17:24:10.771Z,24.40
2017-04-29T17:26:41.390Z,24.00
2017-04-29T17:29:12.010Z,24.80
2017-04-29T17:31:42.598Z,24.80
2017-04-29T17:34:13.623Z,24.30
2017-04-29T17:36:44.631Z,22.80
2017-04-29T17:39:15.542Z,23.80
2017-04-29T17:41:46.348Z,22.50
2017-04-29T17:44:17.121Z,22.20
2017-04-29T17:46:47.822Z,21.50
2017-04-29T17:49:18.669Z,22.30
2017-04-29T17:51:49.637Z,23.10
2017-04-29T17:54:21.256Z,23.50
2017-04-29T17:56:52.200Z,24.30
2017-04-29T17:59:23.160Z,22.00
2017-04-29T18:01:53.974Z,21.70
2017-04-29T18:04:25.611Z,21.60
2017-04-29T18:06:56.414Z,20.70
2017-04-29T18:09:27.365Z,19.80
2017-04-29T18:11:58.467Z,20.10
2017-04-29T18:14:29.312Z,20.00
2017-04-29T18:17:00.007Z,21.10
2017-04-29T18:19:31.089Z,21.80
2017-04-29T18:22:01.624Z,22.10
2017-04-29T18:24:32.789Z,22.70
2017-04-29T18:27:03.845Z,23.90
2017-04-29T18:29:34.694Z,24.20
2017-04-29T18:32:05.343Z,24.00
2017-04-29T18:34:36.009Z,23.60
2017-04-29T18:37:06.829Z,23.30
2017-04-29T18:39:37.723Z,23.30
2017-04-29T18:42:09.358Z,22.20
2017-04-29T18:44:40.279Z,21.10
2017-04-29T18:47:10.917Z,21.00
2017-04-29T18:49:41.145Z,21.60
2017-04-29T18:52:11.515Z,22.60
2017-04-29T18:54:43.186Z,22.20
2017-04-29T18:57:13.949Z,22.10
2017-04-29T18:59:44.785Z,21.60
2017-04-29T19:02:15.622Z,22.20
2017-04-29T19:04:46.608Z,22.40
2017-04-29T19:07:17.241Z,22.50
2017-04-29T19:09:47.940Z,22.80
2017-04-29T19:12:18.594Z,23.60
2017-04-29T19:14:49.608Z,23.60
2017-04-29T19:17:20.212Z,24.10
2017-04-29T19:19:50.992Z,24.20
2017-04-29T19:22:21.873Z,23.20
2017-04-29T19:24:52.871Z,23.90
2017-04-29T19:27:23.690Z,23.20
2017-04-29T19:29:54.315Z,23.70
2017-04-29T19:32:25.149Z,23.20
2017-04-29T19:34:55.800Z,21.20
2017-04-29T19:37:26.711Z,21.50
2017-04-29T19:39:57.495Z,22.50
2017-04-29T19:42:28.114Z,22.80
2017-04-29T19:44:58.443Z,22.50
2017-04-29T19:47:29.493Z,21.50
2017-04-29T19:50:00.167Z,20.00
2017-04-29T19:52:30.948Z,19.80
2017-04-29T19:55:02.947Z,20.10
2017-04-29T19:57:33.929Z,20.40
2017-04-29T20:00:04.803Z,19.80
2017-04-29T20:02:35.365Z,20.10
2017-04-29T20:05:06.831Z,20.00
2017-04-29T20:07:37.685Z,19.90
2017-04-29T20:10:08.203Z,19.50
2017-04-29T20:12:39.000Z,20.10
2017-04-29T20:15:09.773Z,20.30
2017-04-29T20:17:40.507Z,19.70
2017-04-29T20:20:11.167Z,19.90
2017-04-29T20:22:42.105Z,19.90
2017-04-29T20:25:13.202Z,20.30
2017-04-29T20:27:45.536Z,20.50
2017-04-29T20:30:16.576Z,20.30
2017-04-29T20:32:47.795Z,20.80
2017-04-29T20:35:18.699Z,21.00
2017-04-29T20:37:49.574Z,21.00
2017-04-29T20:40:20.065Z,21.10
2017-04-29T20:42:51.789Z,20.80
2017-04-29T20:45:24.206Z,21.10
2017-04-29T20:47:55.473Z,21.30
2017-04-29T20:50:26.729Z,21.10
2017-04-29T20:52:57.659Z,21.30
2017-04-29T20:55:29.512Z,21.50
2017-04-29T20:58:00.017Z,21.30
2017-04-29T21:00:30.982Z,21.60
2017-04-29T21:03:01.769Z,21.50
2017-04-29T21:05:32.753Z,20.70
2017-04-29T21:08:03.722Z,20.20
2017-04-29T21:10:34.468Z,20.00
2017-04-29T21:13:05.142Z,20.30
2017-04-29T21:15:35.848Z,20.40
2017-04-29T21:18:06.715Z,20.70
2017-04-29T21:20:37.749Z,20.20
2017-04-29T21:23:08.378Z,19.80
2017-04-29T21:25:39.463Z,19.80
2017-04-29T21:28:10.188Z,19.40
2017-04-29T21:30:40.923Z,19.30
2017-04-29T21:33:11.862Z,19.70
2017-04-29T21:35:42.932Z,19.60
2017-04-29T21:38:14.029Z,19.40
2017-04-29T21:40:44.668Z,19.40
2017-04-29T21:43:15.385Z,19.50
2017-04-29T21:45:46.272Z,20.00
2017-04-29T21:48:17.310Z,20.00
2017-04-29T21:50:48.270Z,20.00
2017-04-29T21:53:18.985Z,20.00
2017-04-29T21:55:51.368Z,20.00
2017-04-29T21:58:22.138Z,20.20
2017-04-29T22:00:53.795Z,20.40
2017-04-29T22:03:24.551Z,20.60
2017-04-29T22:05:55.547Z,20.40
2017-04-29T22:08:26.816Z,19.90
2017-04-29T22:10:57.733Z,20.20
2017-04-29T22:13:28.630Z,20.10
2017-04-29T22:15:59.712Z,19.80
2017-04-29T22:18:30.787Z,20.00
2017-04-29T22:21:01.477Z,20.20
2017-04-29T22:23:32.817Z,19.90
2017-04-29T22:26:03.573Z,19.60
2017-04-29T22:28:34.686Z,19.70
2017-04-29T22:31:05.994Z,19.90
2017-04-29T22:33:36.685Z,19.90
2017-04-29T22:36:07.816Z,19.90
2017-04-29T22:38:38.699Z,19.50
2017-04-29T22:41:09.364Z,19.00
2017-04-29T22:43:39.975Z,19.20
2017-04-29T22:46:10.588Z,18.90
2017-04-29T22:48:41.629Z,18.90
2017-04-29T22:51:12.301Z,19.10
2017-04-29T22:53:42.890Z,19.40
2017-04-29T22:56:14.815Z,19.50
2017-04-29T22:58:45.827Z,19.70
2017-04-29T23:01:16.636Z,19.70
2017-04-29T23:03:47.435Z,20.20
2017-04-29T23:06:18.441Z,20.50
2017-04-29T23:08:48.962Z,20.50
2017-04-29T23:11:19.606Z,20.30
2017-04-29T23:13:50.150Z,20.20
2017-04-29T23:16:21.325Z,20.30
2017-04-29T23:18:52.054Z,20.50
2017-04-29T23:21:22.862Z,20.60
2017-04-29T23:23:53.721Z,20.40
2017-04-29T23:26:24.723Z,20.30
2017-04-29T23:28:55.522Z,20.40
2017-04-29T23:31:26.566Z,20.30
2017-04-29T23:33:57.977Z,20.10
2017-04-29T23:36:28.757Z,20.10
2017-04-29T23:38:59.787Z,19.70
2017-04-29T23:41:30.497Z,19.60
2017-04-29T23:44:01.232Z,19.60
2017-04-29T23:46:32.135Z,19.50
2017-04-29T23:49:02.951Z,19.30
2017-04-29T23:51:33.769Z,19.40
2017-04-29T23:54:05.351Z,19.50
2017-04-29T23:56:37.387Z,19.50
2017-04-29T23:59:08.467Z,19.70
